createdAt,value
2022-12-20T00:00:28.801Z,983.37
2022-12-20T00:01:28.778Z,983.35
2022-12-20T00:02:28.748Z,983.36
2022-12-20T00:03:28.546Z,983.33
2022-12-20T00:04:28.457Z,983.31
2022-12-20T00:05:28.366Z,983.29
2022-12-20T00:06:28.285Z,983.23
2022-12-20T00:07:28.202Z,983.23
2022-12-20T00:08:28.110Z,983.23
2022-12-20T00:09:28.028Z,983.19
2022-12-20T00:10:27.941Z,983.20
2022-12-20T00:11:27.852Z,983.21
2022-12-20T00:12:27.778Z,983.17
2022-12-20T00:13:27.681Z,983.21
2022-12-20T00:14:27.592Z,983.19
2022-12-20T00:15:27.502Z,983.17
2022-12-20T00:16:27.422Z,983.18
2022-12-20T00:17:27.368Z,983.17
2022-12-20T00:18:27.252Z,983.21
2022-12-20T00:19:27.158Z,983.21
2022-12-20T00:20:27.076Z,983.21
2022-12-20T00:21:27.001Z,983.24
2022-12-20T00:22:26.906Z,983.23
2022-12-20T00:23:26.812Z,983.22
2022-12-20T00:24:26.726Z,983.24
2022-12-20T00:25:26.637Z,983.23
2022-12-20T00:26:26.559Z,983.21
2022-12-20T00:27:26.469Z,983.26
2022-12-20T00:28:26.387Z,983.25
2022-12-20T00:29:26.299Z,983.26
2022-12-20T00:30:26.217Z,983.26
2022-12-20T00:31:26.203Z,983.25
2022-12-20T00:32:26.038Z,983.25
2022-12-20T00:33:25.951Z,983.23
2022-12-20T00:34:25.869Z,983.20
2022-12-20T00:35:25.775Z,983.21
2022-12-20T00:36:25.697Z,983.19
2022-12-20T00:37:25.613Z,983.16
2022-12-20T00:38:25.521Z,983.15
2022-12-20T00:39:25.436Z,983.17
2022-12-20T00:40:25.343Z,983.19
2022-12-20T00:41:25.258Z,983.20
2022-12-20T00:42:25.172Z,983.20
2022-12-20T00:43:25.090Z,983.21
2022-12-20T00:44:25.000Z,983.20
2022-12-20T00:45:24.912Z,983.23
2022-12-20T00:46:25.088Z,983.23
2022-12-20T00:47:24.737Z,983.30
2022-12-20T00:48:24.661Z,983.34
2022-12-20T00:49:24.566Z,983.32
2022-12-20T00:50:24.487Z,983.35
2022-12-20T00:51:24.402Z,983.33
2022-12-20T00:52:24.315Z,983.34
2022-12-20T00:53:26.515Z,983.31
2022-12-20T00:54:24.142Z,983.30
2022-12-20T00:55:24.047Z,983.32
2022-12-20T00:56:23.964Z,983.31
2022-12-20T00:57:23.879Z,983.32
2022-12-20T00:58:23.792Z,983.40
2022-12-20T00:59:23.709Z,983.31
2022-12-20T01:00:23.630Z,983.25
2022-12-20T01:01:23.619Z,983.29
2022-12-20T01:02:23.611Z,983.23
2022-12-20T01:03:23.455Z,983.21
2022-12-20T01:04:23.274Z,983.23
2022-12-20T01:05:23.186Z,983.24
2022-12-20T01:06:23.104Z,983.25
2022-12-20T01:07:23.011Z,983.23
2022-12-20T01:08:22.934Z,983.25
2022-12-20T01:09:22.859Z,983.27
2022-12-20T01:10:22.765Z,983.27
2022-12-20T01:11:22.694Z,983.30
2022-12-20T01:12:22.583Z,983.31
2022-12-20T01:13:22.498Z,983.30
2022-12-20T01:14:22.412Z,983.25
2022-12-20T01:15:22.324Z,983.25
2022-12-20T01:16:22.318Z,983.18
2022-12-20T01:17:22.153Z,983.21
2022-12-20T01:18:22.068Z,983.22
2022-12-20T01:19:21.975Z,983.25
2022-12-20T01:20:21.898Z,983.23
2022-12-20T01:21:21.801Z,983.19
2022-12-20T01:22:21.718Z,983.18
2022-12-20T01:23:21.628Z,983.21
2022-12-20T01:24:21.542Z,983.17
2022-12-20T01:25:21.463Z,983.18
2022-12-20T01:26:21.383Z,983.16
2022-12-20T01:27:21.283Z,983.11
2022-12-20T01:28:21.201Z,983.08
2022-12-20T01:29:21.115Z,983.11
2022-12-20T01:30:21.028Z,983.09
2022-12-20T01:31:21.006Z,983.12
2022-12-20T01:32:20.867Z,983.16
2022-12-20T01:33:20.765Z,983.19
2022-12-20T01:34:20.687Z,983.19
2022-12-20T01:35:20.594Z,983.21
2022-12-20T01:36:20.507Z,983.17
2022-12-20T01:37:20.419Z,983.20
2022-12-20T01:38:20.340Z,983.18
2022-12-20T01:39:20.255Z,983.18
2022-12-20T01:40:20.168Z,983.15
2022-12-20T01:41:20.075Z,983.14
2022-12-20T01:42:19.998Z,983.15
2022-12-20T01:43:19.907Z,983.16
2022-12-20T01:44:19.837Z,983.15
2022-12-20T01:45:19.725Z,983.11
2022-12-20T01:46:19.698Z,983.14
2022-12-20T01:47:19.560Z,983.08
2022-12-20T01:48:19.470Z,983.10
2022-12-20T01:49:19.384Z,983.11
2022-12-20T01:50:19.299Z,983.06
2022-12-20T01:51:19.207Z,983.09
2022-12-20T01:52:19.128Z,983.13
2022-12-20T01:53:19.037Z,983.16
2022-12-20T01:54:18.952Z,983.20
2022-12-20T01:55:18.860Z,983.22
2022-12-20T01:56:18.777Z,983.25
2022-12-20T01:57:18.696Z,983.22
2022-12-20T01:58:18.620Z,983.21
2022-12-20T01:59:18.521Z,983.20
2022-12-20T02:00:18.436Z,983.16
2022-12-20T02:01:18.410Z,983.16
2022-12-20T02:02:18.413Z,983.14
2022-12-20T02:03:18.212Z,983.18
2022-12-20T02:04:18.095Z,983.14
2022-12-20T02:05:18.007Z,983.14
2022-12-20T02:06:17.913Z,983.13
2022-12-20T02:07:17.826Z,983.13
2022-12-20T02:08:17.745Z,983.07
2022-12-20T02:09:17.656Z,983.04
2022-12-20T02:10:17.572Z,983.01
2022-12-20T02:11:17.485Z,982.99
2022-12-20T02:12:17.399Z,982.96
2022-12-20T02:13:17.329Z,982.99
2022-12-20T02:14:17.229Z,982.98
2022-12-20T02:15:17.139Z,982.97
2022-12-20T02:16:17.054Z,982.93
2022-12-20T02:17:16.969Z,982.96
2022-12-20T02:18:16.877Z,982.94
2022-12-20T02:19:16.790Z,982.90
2022-12-20T02:20:16.709Z,982.89
2022-12-20T02:21:16.619Z,982.84
2022-12-20T02:22:16.536Z,982.82
2022-12-20T02:23:16.446Z,982.80
2022-12-20T02:24:16.363Z,982.74
2022-12-20T02:25:16.273Z,982.70
2022-12-20T02:26:16.194Z,982.64
2022-12-20T02:27:16.096Z,982.63
2022-12-20T02:28:16.015Z,982.60
2022-12-20T02:29:15.929Z,982.59
2022-12-20T02:30:15.844Z,982.52
2022-12-20T02:31:15.779Z,982.55
2022-12-20T02:32:15.751Z,982.55
2022-12-20T02:33:15.580Z,982.58
2022-12-20T02:34:15.499Z,982.54
2022-12-20T02:35:15.415Z,982.57
2022-12-20T02:36:15.326Z,982.51
2022-12-20T02:37:15.245Z,982.54
2022-12-20T02:38:15.151Z,982.47
2022-12-20T02:39:15.067Z,982.50
2022-12-20T02:40:14.973Z,982.55
2022-12-20T02:41:14.893Z,982.52
2022-12-20T02:42:14.808Z,982.44
2022-12-20T02:43:14.717Z,982.44
2022-12-20T02:44:14.629Z,982.36
2022-12-20T02:45:14.547Z,982.34
2022-12-20T02:46:14.559Z,982.35
2022-12-20T02:47:14.373Z,982.36
2022-12-20T02:48:14.286Z,982.35
2022-12-20T02:49:14.227Z,982.42
2022-12-20T02:50:14.122Z,982.45
2022-12-20T02:51:14.027Z,982.47
2022-12-20T02:52:13.945Z,982.52
2022-12-20T02:53:13.887Z,982.52
2022-12-20T02:54:13.773Z,982.55
2022-12-20T02:55:13.689Z,982.54
2022-12-20T02:56:13.596Z,982.55
2022-12-20T02:57:13.510Z,982.53
2022-12-20T02:58:13.424Z,982.59
2022-12-20T02:59:13.339Z,982.55
2022-12-20T03:00:13.254Z,982.58
2022-12-20T03:01:13.190Z,982.57
2022-12-20T03:02:13.282Z,982.56
2022-12-20T03:03:13.114Z,982.53
2022-12-20T03:04:12.900Z,982.59
2022-12-20T03:05:12.819Z,982.56
2022-12-20T03:06:12.727Z,982.55
2022-12-20T03:07:12.660Z,982.52
2022-12-20T03:08:12.559Z,982.51
2022-12-20T03:09:12.477Z,982.49
2022-12-20T03:10:12.386Z,982.39
2022-12-20T03:11:12.303Z,982.40
2022-12-20T03:12:12.241Z,982.33
2022-12-20T03:13:12.155Z,982.33
2022-12-20T03:14:12.049Z,982.33
2022-12-20T03:15:11.952Z,982.33
2022-12-20T03:16:11.875Z,982.33
2022-12-20T03:17:11.861Z,982.33
2022-12-20T03:18:11.708Z,982.34
2022-12-20T03:19:11.605Z,982.35
2022-12-20T03:20:11.519Z,982.35
2022-12-20T03:21:11.440Z,982.37
2022-12-20T03:22:11.349Z,982.36
2022-12-20T03:23:11.269Z,982.36
2022-12-20T03:24:11.175Z,982.35
2022-12-20T03:25:11.097Z,982.39
2022-12-20T03:26:11.005Z,982.44
2022-12-20T03:27:10.920Z,982.46
2022-12-20T03:28:10.831Z,982.47
2022-12-20T03:29:10.748Z,982.42
2022-12-20T03:30:10.661Z,982.41
2022-12-20T03:31:10.615Z,982.38
2022-12-20T03:32:10.490Z,982.38
2022-12-20T03:33:10.410Z,982.36
2022-12-20T03:34:10.325Z,982.36
2022-12-20T03:35:10.224Z,982.34
2022-12-20T03:36:10.136Z,982.31
2022-12-20T03:37:10.057Z,982.33
2022-12-20T03:38:09.966Z,982.36
2022-12-20T03:39:09.883Z,982.33
2022-12-20T03:40:09.792Z,982.34
2022-12-20T03:41:09.705Z,982.34
2022-12-20T03:42:09.638Z,982.35
2022-12-20T03:43:09.536Z,982.36
2022-12-20T03:44:09.485Z,982.36
2022-12-20T03:45:09.357Z,982.37
2022-12-20T03:46:09.346Z,982.34
2022-12-20T03:47:09.191Z,982.34
2022-12-20T03:48:09.100Z,982.38
2022-12-20T03:49:09.027Z,982.38
2022-12-20T03:50:08.946Z,982.34
2022-12-20T03:51:08.843Z,982.30
2022-12-20T03:52:08.763Z,982.31
2022-12-20T03:53:08.670Z,982.35
2022-12-20T03:54:08.584Z,982.33
2022-12-20T03:55:08.497Z,982.32
2022-12-20T03:56:08.410Z,982.27
2022-12-20T03:57:08.326Z,982.31
2022-12-20T03:58:08.239Z,982.32
2022-12-20T03:59:08.149Z,982.33
2022-12-20T04:00:08.093Z,982.30
2022-12-20T04:01:07.988Z,982.32
2022-12-20T04:02:08.018Z,982.28
2022-12-20T04:03:07.912Z,982.28
2022-12-20T04:04:07.719Z,982.29
2022-12-20T04:05:07.633Z,982.24
2022-12-20T04:06:07.553Z,982.23
2022-12-20T04:07:07.461Z,982.20
2022-12-20T04:08:07.373Z,982.19
2022-12-20T04:09:07.297Z,982.19
2022-12-20T04:10:07.204Z,982.11
2022-12-20T04:11:07.123Z,982.12
2022-12-20T04:12:07.030Z,982.13
2022-12-20T04:13:06.943Z,982.13
2022-12-20T04:14:06.860Z,982.17
2022-12-20T04:15:06.772Z,982.19
2022-12-20T04:16:06.740Z,982.21
2022-12-20T04:17:06.611Z,982.15
2022-12-20T04:18:06.526Z,982.20
2022-12-20T04:19:06.423Z,982.21
2022-12-20T04:20:06.338Z,982.27
2022-12-20T04:21:06.255Z,982.31
2022-12-20T04:22:06.541Z,982.35
2022-12-20T04:23:06.084Z,982.35
2022-12-20T04:24:05.992Z,982.31
2022-12-20T04:25:05.917Z,982.25
2022-12-20T04:26:05.820Z,982.25
2022-12-20T04:27:05.751Z,982.20
2022-12-20T04:28:05.647Z,982.23
2022-12-20T04:29:05.563Z,982.13
2022-12-20T04:30:05.481Z,982.12
2022-12-20T04:31:05.421Z,982.11
2022-12-20T04:32:05.302Z,982.07
2022-12-20T04:33:05.220Z,982.09
2022-12-20T04:34:05.134Z,982.04
2022-12-20T04:35:05.042Z,982.08
2022-12-20T04:36:04.955Z,982.07
2022-12-20T04:37:04.877Z,982.08
2022-12-20T04:38:04.807Z,982.11
2022-12-20T04:39:04.700Z,982.07
2022-12-20T04:40:04.633Z,982.05
2022-12-20T04:41:04.524Z,982.05
2022-12-20T04:42:04.435Z,982.02
2022-12-20T04:43:04.354Z,981.98
2022-12-20T04:44:04.265Z,981.92
2022-12-20T04:45:04.194Z,981.98
2022-12-20T04:46:04.138Z,981.96
2022-12-20T04:47:04.075Z,981.94
2022-12-20T04:48:28.443Z,981.94
2022-12-20T04:49:03.840Z,981.90
2022-12-20T04:50:03.769Z,981.91
2022-12-20T04:51:03.668Z,981.89
2022-12-20T04:52:03.573Z,981.91
2022-12-20T04:53:03.507Z,981.93
2022-12-20T04:54:03.406Z,981.93
2022-12-20T04:55:03.314Z,981.89
2022-12-20T04:56:03.225Z,981.90
2022-12-20T04:57:03.139Z,981.91
2022-12-20T04:58:07.540Z,981.85
2022-12-20T04:59:02.974Z,981.84
2022-12-20T05:00:02.890Z,981.84
2022-12-20T05:01:02.799Z,981.87
2022-12-20T05:02:02.862Z,981.86
2022-12-20T05:03:02.748Z,981.79
2022-12-20T05:04:02.573Z,981.81
2022-12-20T05:05:02.455Z,981.73
2022-12-20T05:06:02.395Z,981.71
2022-12-20T05:07:02.290Z,981.69
2022-12-20T05:08:02.198Z,981.73
2022-12-20T05:09:02.115Z,981.70
2022-12-20T05:10:02.027Z,981.68
2022-12-20T05:11:01.939Z,981.63
2022-12-20T05:12:01.847Z,981.66
2022-12-20T05:13:05.680Z,981.62
2022-12-20T05:14:01.680Z,981.64
2022-12-20T05:15:01.592Z,981.70
2022-12-20T05:16:01.597Z,981.74
2022-12-20T05:17:01.429Z,981.76
2022-12-20T05:18:01.329Z,981.80
2022-12-20T05:19:01.241Z,981.85
2022-12-20T05:20:01.156Z,981.81
2022-12-20T05:21:01.071Z,981.78
2022-12-20T05:22:00.988Z,981.70
2022-12-20T05:23:00.896Z,981.72
2022-12-20T05:24:00.827Z,981.68
2022-12-20T05:25:00.734Z,981.68
2022-12-20T05:26:00.649Z,981.64
2022-12-20T05:27:00.560Z,981.61
2022-12-20T05:28:00.461Z,981.60
2022-12-20T05:29:00.385Z,981.52
2022-12-20T05:30:00.301Z,981.54
2022-12-20T05:31:00.251Z,981.49
2022-12-20T05:32:00.125Z,981.46
2022-12-20T05:33:00.045Z,981.51
2022-12-20T05:33:59.945Z,981.51
2022-12-20T05:34:59.868Z,981.50
2022-12-20T05:35:59.779Z,981.44
2022-12-20T05:36:59.698Z,981.43
2022-12-20T05:37:59.605Z,981.44
2022-12-20T05:39:03.940Z,981.39
2022-12-20T05:39:59.432Z,981.49
2022-12-20T05:40:59.346Z,981.53
2022-12-20T05:41:59.262Z,981.47
2022-12-20T05:42:59.177Z,981.46
2022-12-20T05:43:59.094Z,981.46
2022-12-20T05:44:59.006Z,981.51
2022-12-20T05:45:58.914Z,981.54
2022-12-20T05:46:58.857Z,981.54
2022-12-20T05:47:58.747Z,981.53
2022-12-20T05:48:58.654Z,981.55
2022-12-20T05:49:58.568Z,981.57
2022-12-20T05:50:58.483Z,981.54
2022-12-20T05:51:58.396Z,981.53
2022-12-20T05:52:58.313Z,981.56
2022-12-20T05:53:58.218Z,981.57
2022-12-20T05:54:58.154Z,981.53
2022-12-20T05:55:58.049Z,981.52
2022-12-20T05:56:57.966Z,981.50
2022-12-20T05:57:57.878Z,981.50
2022-12-20T05:58:57.794Z,981.52
2022-12-20T05:59:57.707Z,981.51
2022-12-20T06:00:57.620Z,981.52
2022-12-20T06:01:57.685Z,981.50
2022-12-20T06:02:57.715Z,981.56
2022-12-20T06:03:57.387Z,981.53
2022-12-20T06:04:57.276Z,981.55
2022-12-20T06:05:57.190Z,981.56
2022-12-20T06:06:57.109Z,981.56
2022-12-20T06:07:57.016Z,981.57
2022-12-20T06:08:56.936Z,981.54
2022-12-20T06:09:56.839Z,981.57
2022-12-20T06:10:56.767Z,981.55
2022-12-20T06:11:56.673Z,981.56
2022-12-20T06:12:56.586Z,981.58
2022-12-20T06:13:56.502Z,981.57
2022-12-20T06:14:56.411Z,981.58
2022-12-20T06:15:56.354Z,981.59
2022-12-20T06:16:56.353Z,981.58
2022-12-20T06:17:56.153Z,981.56
2022-12-20T06:18:56.071Z,981.56
2022-12-20T06:19:55.982Z,981.55
2022-12-20T06:20:55.909Z,981.56
2022-12-20T06:21:55.811Z,981.58
2022-12-20T06:22:55.722Z,981.57
2022-12-20T06:23:55.633Z,981.56
2022-12-20T06:24:55.551Z,981.54
2022-12-20T06:25:55.458Z,981.49
2022-12-20T06:26:55.395Z,981.43
2022-12-20T06:27:55.298Z,981.35
2022-12-20T06:28:55.203Z,981.35
2022-12-20T06:29:55.129Z,981.34
2022-12-20T06:30:55.038Z,981.35
2022-12-20T06:31:54.990Z,981.33
2022-12-20T06:32:54.861Z,981.34
2022-12-20T06:33:54.783Z,981.39
2022-12-20T06:34:54.701Z,981.40
2022-12-20T06:35:54.602Z,981.45
2022-12-20T06:36:54.523Z,981.46
2022-12-20T06:37:54.430Z,981.49
2022-12-20T06:38:54.351Z,981.54
2022-12-20T06:39:54.261Z,981.52
2022-12-20T06:40:54.171Z,981.53
2022-12-20T06:41:54.094Z,981.57
2022-12-20T06:42:54.001Z,981.58
2022-12-20T06:43:53.977Z,981.60
2022-12-20T06:44:53.823Z,981.67
2022-12-20T06:45:53.883Z,981.70
2022-12-20T06:46:53.653Z,981.71
2022-12-20T06:47:53.566Z,981.63
2022-12-20T06:48:53.480Z,981.62
2022-12-20T06:49:53.403Z,981.63
2022-12-20T06:50:56.110Z,981.65
2022-12-20T06:51:53.223Z,981.66
2022-12-20T06:52:53.137Z,981.68
2022-12-20T06:53:53.049Z,981.71
2022-12-20T06:54:52.967Z,981.72
2022-12-20T06:55:52.876Z,981.73
2022-12-20T06:56:52.792Z,981.78
2022-12-20T06:57:52.705Z,981.81
2022-12-20T06:58:52.620Z,981.82
2022-12-20T06:59:52.540Z,981.81
2022-12-20T07:00:52.499Z,981.82
2022-12-20T07:01:52.555Z,981.82
2022-12-20T07:02:52.470Z,981.80
2022-12-20T07:03:52.247Z,981.78
2022-12-20T07:04:52.101Z,981.76
2022-12-20T07:05:52.017Z,981.76
2022-12-20T07:06:51.941Z,981.77
2022-12-20T07:07:51.843Z,981.76
2022-12-20T07:08:51.775Z,981.79
2022-12-20T07:09:51.680Z,981.86
2022-12-20T07:10:51.589Z,981.85
2022-12-20T07:11:51.505Z,981.82
2022-12-20T07:12:51.416Z,981.81
2022-12-20T07:13:51.326Z,981.76
2022-12-20T07:14:51.248Z,981.69
2022-12-20T07:15:51.169Z,981.72
2022-12-20T07:16:51.136Z,981.71
2022-12-20T07:17:50.985Z,981.70
2022-12-20T07:18:50.936Z,981.70
2022-12-20T07:19:51.373Z,981.71
2022-12-20T07:20:50.730Z,981.69
2022-12-20T07:21:50.638Z,981.58
2022-12-20T07:22:50.554Z,981.63
2022-12-20T07:23:50.486Z,981.63
2022-12-20T07:24:50.378Z,981.63
2022-12-20T07:25:50.296Z,981.64
2022-12-20T07:26:50.212Z,981.66
2022-12-20T07:27:50.221Z,981.68
2022-12-20T07:28:50.039Z,981.70
2022-12-20T07:29:49.953Z,981.69
2022-12-20T07:30:49.875Z,981.70
2022-12-20T07:31:49.833Z,981.65
2022-12-20T07:32:49.700Z,981.65
2022-12-20T07:33:49.617Z,981.63
2022-12-20T07:34:49.536Z,981.59
2022-12-20T07:35:54.247Z,981.60
2022-12-20T07:36:49.397Z,981.63
2022-12-20T07:37:49.260Z,981.60
2022-12-20T07:38:49.185Z,981.63
2022-12-20T07:39:49.143Z,981.64
2022-12-20T07:40:49.017Z,981.65
2022-12-20T07:41:48.917Z,981.61
2022-12-20T07:42:49.264Z,981.60
2022-12-20T07:43:48.754Z,981.64
2022-12-20T07:44:48.678Z,981.66
2022-12-20T07:45:48.662Z,981.69
2022-12-20T07:46:48.483Z,981.72
2022-12-20T07:47:48.418Z,981.70
2022-12-20T07:48:48.309Z,981.70
2022-12-20T07:49:48.232Z,981.65
2022-12-20T07:50:48.148Z,981.64
2022-12-20T07:51:49.969Z,981.62
2022-12-20T07:52:47.968Z,981.66
2022-12-20T07:53:47.887Z,981.60
2022-12-20T07:54:47.812Z,981.60
2022-12-20T07:55:47.713Z,981.62
2022-12-20T07:56:47.625Z,981.57
2022-12-20T07:57:47.596Z,981.58
2022-12-20T07:58:47.454Z,981.57
2022-12-20T07:59:47.369Z,981.52
2022-12-20T08:00:47.278Z,981.52
2022-12-20T08:01:47.372Z,981.52
2022-12-20T08:02:47.469Z,981.46
2022-12-20T08:03:47.085Z,981.45
2022-12-20T08:04:46.953Z,981.50
2022-12-20T08:05:46.854Z,981.49
2022-12-20T08:06:46.765Z,981.40
2022-12-20T08:07:46.685Z,981.35
2022-12-20T08:08:46.589Z,981.41
2022-12-20T08:09:46.511Z,981.40
2022-12-20T08:10:46.419Z,981.41
2022-12-20T08:11:46.332Z,981.41
2022-12-20T08:12:46.249Z,981.40
2022-12-20T08:13:47.172Z,981.38
2022-12-20T08:14:46.083Z,981.29
2022-12-20T08:15:45.998Z,981.34
2022-12-20T08:16:45.940Z,981.31
2022-12-20T08:17:45.840Z,981.26
2022-12-20T08:18:45.734Z,981.29
2022-12-20T08:19:45.648Z,981.26
2022-12-20T08:20:45.563Z,981.29
2022-12-20T08:21:45.480Z,981.25
2022-12-20T08:22:45.393Z,981.25
2022-12-20T08:23:45.308Z,981.23
2022-12-20T08:24:45.217Z,981.16
2022-12-20T08:25:45.141Z,981.13
2022-12-20T08:26:45.040Z,981.10
2022-12-20T08:27:44.975Z,981.18
2022-12-20T08:28:44.871Z,981.10
2022-12-20T08:29:44.802Z,981.11
2022-12-20T08:30:44.759Z,981.04
2022-12-20T08:31:49.980Z,981.10
2022-12-20T08:32:44.532Z,981.14
2022-12-20T08:33:44.445Z,981.13
2022-12-20T08:34:44.353Z,981.13
2022-12-20T08:35:44.282Z,981.20
2022-12-20T08:36:44.184Z,981.11
2022-12-20T08:37:44.114Z,981.05
2022-12-20T08:38:44.006Z,981.07
2022-12-20T08:39:43.925Z,981.12
2022-12-20T08:40:43.836Z,981.12
2022-12-20T08:41:43.759Z,981.12
2022-12-20T08:42:43.664Z,981.13
2022-12-20T08:43:43.604Z,981.09
2022-12-20T08:44:43.496Z,981.09
2022-12-20T08:45:43.458Z,981.05
2022-12-20T08:46:43.394Z,981.07
2022-12-20T08:47:43.235Z,981.11
2022-12-20T08:48:43.159Z,981.11
2022-12-20T08:49:47.606Z,981.09
2022-12-20T08:50:43.064Z,981.05
2022-12-20T08:51:42.937Z,981.04
2022-12-20T08:52:42.801Z,981.01
2022-12-20T08:53:42.740Z,981.07
2022-12-20T08:54:42.636Z,981.11
2022-12-20T08:55:42.571Z,981.13
2022-12-20T08:56:42.462Z,981.11
2022-12-20T08:57:42.386Z,981.10
2022-12-20T08:58:42.302Z,981.09
2022-12-20T08:59:42.203Z,981.09
2022-12-20T09:00:42.119Z,981.02
2022-12-20T09:01:42.155Z,981.03
2022-12-20T09:02:42.185Z,980.96
2022-12-20T09:03:41.915Z,980.95
2022-12-20T09:04:41.772Z,980.90
2022-12-20T09:05:41.689Z,980.88
2022-12-20T09:06:41.617Z,980.89
2022-12-20T09:07:41.515Z,980.82
2022-12-20T09:08:41.431Z,980.81
2022-12-20T09:09:41.353Z,980.82
2022-12-20T09:10:41.253Z,980.85
2022-12-20T09:11:41.175Z,980.83
2022-12-20T09:12:41.088Z,980.89
2022-12-20T09:13:44.105Z,980.90
2022-12-20T09:14:40.957Z,980.91
2022-12-20T09:15:40.866Z,980.93
2022-12-20T09:16:40.754Z,980.95
2022-12-20T09:17:40.670Z,980.93
2022-12-20T09:18:40.577Z,980.96
2022-12-20T09:19:40.500Z,980.94
2022-12-20T09:20:40.469Z,981.09
2022-12-20T09:21:40.313Z,981.15
2022-12-20T09:22:40.232Z,981.13
2022-12-20T09:23:40.147Z,981.09
2022-12-20T09:24:40.056Z,981.06
2022-12-20T09:25:39.979Z,981.05
2022-12-20T09:26:39.886Z,980.99
2022-12-20T09:27:39.800Z,980.97
2022-12-20T09:28:39.721Z,981.00
2022-12-20T09:29:39.632Z,980.97
2022-12-20T09:30:39.586Z,980.95
2022-12-20T09:31:39.511Z,980.95
2022-12-20T09:32:39.383Z,980.91
2022-12-20T09:33:39.292Z,980.95
2022-12-20T09:34:39.196Z,980.97
2022-12-20T09:35:39.121Z,981.01
2022-12-20T09:36:39.051Z,980.97
2022-12-20T09:37:38.962Z,980.95
2022-12-20T09:38:38.854Z,980.92
2022-12-20T09:39:38.773Z,980.87
2022-12-20T09:40:38.743Z,980.88
2022-12-20T09:41:38.624Z,980.85
2022-12-20T09:42:38.519Z,980.84
2022-12-20T09:43:38.428Z,980.88
2022-12-20T09:44:38.344Z,980.88
2022-12-20T09:45:38.265Z,980.85
2022-12-20T09:46:38.239Z,980.93
2022-12-20T09:47:38.095Z,980.90
2022-12-20T09:48:38.000Z,980.92
2022-12-20T09:49:37.927Z,980.93
2022-12-20T09:50:37.889Z,980.95
2022-12-20T09:51:37.764Z,980.95
2022-12-20T09:52:37.679Z,980.98
2022-12-20T09:53:37.589Z,980.97
2022-12-20T09:54:37.505Z,980.88
2022-12-20T09:55:37.413Z,980.84
2022-12-20T09:56:37.317Z,980.82
2022-12-20T09:57:37.238Z,980.80
2022-12-20T09:58:37.161Z,980.80
2022-12-20T09:59:40.378Z,980.79
2022-12-20T10:00:36.994Z,980.76
2022-12-20T10:01:39.857Z,980.77
2022-12-20T10:03:08.524Z,980.74
2022-12-20T10:03:36.939Z,980.69
2022-12-20T10:04:36.892Z,980.68
2022-12-20T10:05:41.243Z,980.61
2022-12-20T10:06:36.473Z,980.58
2022-12-20T10:07:36.393Z,980.53
2022-12-20T10:08:36.313Z,980.51
2022-12-20T10:09:36.234Z,980.56
2022-12-20T10:10:36.175Z,980.54
2022-12-20T10:11:41.924Z,980.51
2022-12-20T10:12:35.987Z,980.48
2022-12-20T10:13:35.951Z,980.43
2022-12-20T10:14:35.822Z,980.48
2022-12-20T10:15:35.747Z,980.49
2022-12-20T10:16:35.718Z,980.50
2022-12-20T10:17:35.554Z,980.52
2022-12-20T10:18:35.466Z,980.54
2022-12-20T10:19:35.372Z,980.50
2022-12-20T10:20:35.275Z,980.44
2022-12-20T10:21:35.192Z,980.42
2022-12-20T10:22:35.105Z,980.35
2022-12-20T10:23:35.022Z,980.33
2022-12-20T10:24:34.951Z,980.30
2022-12-20T10:25:34.859Z,980.24
2022-12-20T10:26:34.762Z,980.25
2022-12-20T10:27:34.680Z,980.22
2022-12-20T10:28:34.596Z,980.21
2022-12-20T10:29:34.518Z,980.21
2022-12-20T10:30:34.424Z,980.20
2022-12-20T10:31:34.430Z,980.20
2022-12-20T10:32:34.275Z,980.19
2022-12-20T10:33:34.173Z,980.18
2022-12-20T10:34:38.274Z,980.11
2022-12-20T10:35:34.017Z,980.07
2022-12-20T10:36:33.924Z,980.03
2022-12-20T10:37:33.830Z,980.00
2022-12-20T10:38:33.748Z,980.00
2022-12-20T10:39:33.664Z,980.00
2022-12-20T10:41:01.330Z,980.02
2022-12-20T10:41:33.490Z,979.99
2022-12-20T10:42:33.421Z,979.97
2022-12-20T10:43:33.319Z,979.95
2022-12-20T10:44:33.242Z,979.93
2022-12-20T10:45:36.305Z,979.90
2022-12-20T10:46:33.140Z,979.86
2022-12-20T10:47:32.980Z,979.82
2022-12-20T10:48:32.899Z,979.82
2022-12-20T10:49:32.835Z,979.86
2022-12-20T10:50:32.735Z,979.86
2022-12-20T10:51:32.640Z,979.91
2022-12-20T10:52:32.557Z,979.87
2022-12-20T10:53:32.485Z,979.90
2022-12-20T10:54:32.391Z,979.92
2022-12-20T10:55:32.305Z,979.92
2022-12-20T10:56:32.216Z,979.90
2022-12-20T10:57:32.137Z,979.92
2022-12-20T10:58:32.253Z,979.87
2022-12-20T10:59:31.969Z,979.81
2022-12-20T11:00:31.902Z,979.85
2022-12-20T11:01:32.000Z,979.84
2022-12-20T11:02:39.566Z,979.83
2022-12-20T11:03:31.943Z,979.80
2022-12-20T11:04:31.696Z,979.78
2022-12-20T11:05:31.457Z,979.74
2022-12-20T11:06:31.375Z,979.72
2022-12-20T11:07:31.305Z,979.74
2022-12-20T11:08:47.301Z,979.71
2022-12-20T11:09:31.112Z,979.59
2022-12-20T11:10:31.025Z,979.59
2022-12-20T11:11:30.943Z,979.54
2022-12-20T11:12:30.865Z,979.49
2022-12-20T11:13:30.787Z,979.45
2022-12-20T11:14:38.355Z,979.47
2022-12-20T11:15:34.121Z,979.54
2022-12-20T11:16:30.586Z,979.52
2022-12-20T11:17:30.463Z,979.57
2022-12-20T11:18:30.404Z,979.63
2022-12-20T11:19:30.275Z,979.73
2022-12-20T11:20:30.190Z,979.76
2022-12-20T11:21:30.110Z,979.77
2022-12-20T11:22:30.030Z,979.71
2022-12-20T11:23:29.936Z,979.67
2022-12-20T11:24:29.838Z,979.66
2022-12-20T11:25:29.776Z,979.55
2022-12-20T11:26:29.681Z,979.52
2022-12-20T11:27:29.582Z,979.46
2022-12-20T11:28:29.522Z,979.51
2022-12-20T11:29:29.417Z,979.59
2022-12-20T11:30:29.346Z,979.63
2022-12-20T11:31:29.457Z,979.64
2022-12-20T11:32:29.163Z,979.69
2022-12-20T11:33:29.080Z,979.69
2022-12-20T11:34:29.010Z,979.68
2022-12-20T11:35:28.907Z,979.67
2022-12-20T11:36:28.827Z,979.70
2022-12-20T11:37:28.739Z,979.73
2022-12-20T11:38:28.653Z,979.69
2022-12-20T11:39:28.573Z,979.71
2022-12-20T11:40:28.492Z,979.67
2022-12-20T11:41:28.399Z,979.65
2022-12-20T11:42:28.322Z,979.58
2022-12-20T11:43:28.241Z,979.68
2022-12-20T11:44:28.148Z,979.62
2022-12-20T11:45:28.065Z,979.64
2022-12-20T11:46:27.989Z,979.59
2022-12-20T11:47:27.893Z,979.57
2022-12-20T11:48:27.813Z,979.48
2022-12-20T11:49:27.729Z,979.49
2022-12-20T11:50:27.643Z,979.42
2022-12-20T11:51:27.560Z,979.43
2022-12-20T11:52:27.475Z,979.44
2022-12-20T11:53:27.388Z,979.42
2022-12-20T11:54:27.306Z,979.40
2022-12-20T11:55:27.239Z,979.43
2022-12-20T11:56:27.141Z,979.37
2022-12-20T11:57:27.050Z,979.35
2022-12-20T11:58:26.967Z,979.37
2022-12-20T11:59:26.910Z,979.40
2022-12-20T12:00:26.802Z,979.43
2022-12-20T12:01:26.791Z,979.42
2022-12-20T12:02:26.784Z,979.38
2022-12-20T12:03:26.619Z,979.39
2022-12-20T12:04:26.464Z,979.39
2022-12-20T12:05:26.460Z,979.41
2022-12-20T12:06:26.323Z,979.40
2022-12-20T12:07:26.373Z,979.36
2022-12-20T12:08:26.123Z,979.32
2022-12-20T12:09:26.040Z,979.27
2022-12-20T12:10:25.952Z,979.28
2022-12-20T12:12:04.736Z,979.24
2022-12-20T12:12:25.783Z,979.17
2022-12-20T12:13:25.699Z,979.17
2022-12-20T12:14:25.615Z,979.26
2022-12-20T12:15:25.531Z,979.33
2022-12-20T12:16:25.521Z,979.34
2022-12-20T12:17:25.361Z,979.26
2022-12-20T12:18:25.286Z,979.15
2022-12-20T12:19:25.194Z,979.08
2022-12-20T12:20:25.126Z,979.07
2022-12-20T12:21:25.028Z,979.07
2022-12-20T12:22:24.954Z,979.03
2022-12-20T12:23:24.860Z,978.97
2022-12-20T12:24:24.773Z,978.89
2022-12-20T12:25:24.685Z,978.80
2022-12-20T12:26:24.605Z,978.80
2022-12-20T12:27:24.519Z,978.82